Time,TemperatureF,DewpointF,PressureIn,WindDirection,WindDirectionDegrees,WindSpeedMPH,WindSpeedGustMPH,Humidity,HourlyPrecipIn,Conditions,Clouds,dailyrainin,SoftwareType,DateUTC
2014-02-05 00:02:00,30.7,28.9,30.08,NE,42,7.0,9.0,93,0.01,,,-99.99,VWS V12.07,2014-02-05 05:02:00,
2014-02-05 00:15:00,30.7,28.9,30.06,NE,49,6.0,8.0,93,0.02,,,-99.99,VWS V12.07,2014-02-05 05:15:00,
2014-02-05 01:02:00,31.2,29.9,30.02,NNE,31,0.0,0.0,95,0.02,,,-99.99,VWS V12.07,2014-02-05 06:02:00,
2014-02-05 01:15:00,31.2,29.9,30.00,North,8,0.0,0.0,95,0.01,,,-99.99,VWS V12.07,2014-02-05 06:15:00,
2014-02-05 02:02:00,31.3,30.3,30.00,North,1,0.0,0.0,96,0.02,,,-99.99,VWS V12.07,2014-02-05 07:02:00,
2014-02-05 02:15:00,31.5,30.5,29.99,NNE,16,0.0,0.0,96,0.02,,,-99.99,VWS V12.07,2014-02-05 07:15:00,
2014-02-05 03:02:00,31.6,30.6,29.96,NNE,15,0.0,0.0,96,0.03,,,-99.99,VWS V12.07,2014-02-05 08:02:00,
2014-02-05 03:15:00,31.6,30.6,29.95,NNE,19,0.0,0.0,96,0.02,,,-99.99,VWS V12.07,2014-02-05 08:15:00,
2014-02-05 04:02:00,31.8,30.8,29.89,NNE,25,0.0,0.0,96,0.03,,,-99.99,VWS V12.07,2014-02-05 09:02:00,
2014-02-05 04:15:00,31.9,30.9,29.87,NE,39,0.0,0.0,96,0.03,,,-99.99,VWS V12.07,2014-02-05 09:15:00,
2014-02-05 05:02:00,32.2,31.5,29.86,North,359,0.0,0.0,97,0.05,,,-99.99,VWS V12.07,2014-02-05 10:02:00,
2014-02-05 05:15:00,32.4,31.6,29.84,North,354,0.0,0.0,97,0.04,,,-99.99,VWS V12.07,2014-02-05 10:15:00,
2014-02-05 06:02:00,32.8,32.0,29.84,NNW,345,0.0,0.0,97,0.10,,,-99.99,VWS V12.07,2014-02-05 11:02:00,
2014-02-05 06:15:00,32.8,32.0,29.84,North,359,0.0,0.0,97,0.10,,,-99.99,VWS V12.07,2014-02-05 11:15:00,
2014-02-05 07:02:00,32.8,32.3,29.79,NE,46,0.0,0.0,98,0.07,,,-99.99,VWS V12.07,2014-02-05 12:02:00,
2014-02-05 07:15:00,32.8,32.0,29.80,NE,49,0.0,0.0,97,0.03,,,-99.99,VWS V12.07,2014-02-05 12:15:00,
2014-02-05 08:02:00,32.8,32.0,29.75,ESE,113,0.0,0.0,97,0.04,,,-99.99,VWS V12.07,2014-02-05 13:02:00,
2014-02-05 08:15:00,32.8,32.0,29.74,ESE,113,0.0,0.0,97,0.04,,,-99.99,VWS V12.07,2014-02-05 13:15:00,
2014-02-05 09:02:00,32.7,31.9,29.70,SE,127,0.0,0.0,97,0.09,,,-99.99,VWS V12.07,2014-02-05 14:02:00,
2014-02-05 09:15:00,32.7,31.9,29.69,SE,127,0.0,0.0,97,0.07,,,-99.99,VWS V12.07,2014-02-05 14:15:00,
2014-02-05 10:02:00,32.8,32.0,29.67,SE,127,0.0,0.0,97,0.05,,,-99.99,VWS V12.07,2014-02-05 15:02:00,
2014-02-05 10:15:00,32.8,32.3,29.66,SE,127,0.0,0.0,98,0.02,,,-99.99,VWS V12.07,2014-02-05 15:15:00,
2014-02-05 11:02:00,32.8,32.3,29.65,SE,127,0.0,0.0,98,0.04,,,-99.99,VWS V12.07,2014-02-05 16:02:00,
2014-02-05 11:15:00,32.8,32.3,29.64,SE,127,0.0,0.0,98,0.04,,,-99.99,VWS V12.07,2014-02-05 16:15:00,
2014-02-05 12:02:00,33.4,32.9,29.62,SSE,150,0.0,0.0,98,0.03,,,-99.99,VWS V12.07,2014-02-05 17:02:00,
2014-02-05 12:15:00,33.5,33.0,29.63,SSE,151,0.0,0.0,98,0.03,,,-99.99,VWS V12.07,2014-02-05 17:15:00,
2014-02-05 13:02:00,34.0,33.5,29.61,WSW,252,0.0,0.0,98,0.01,,,-99.99,VWS V12.07,2014-02-05 18:02:00,
2014-02-05 13:15:00,34.3,33.8,29.60,SW,222,0.0,0.0,98,0.01,,,-99.99,VWS V12.07,2014-02-05 18:15:00,
2014-02-05 14:02:00,35.2,34.7,29.58,West,262,1.0,7.0,98,0.01,,,-99.99,VWS V12.07,2014-02-05 19:02:00,
2014-02-05 14:15:00,35.3,34.8,29.58,SW,233,0.0,7.0,98,0.01,,,-99.99,VWS V12.07,2014-02-05 19:15:00,
2014-02-05 15:02:00,36.2,35.4,29.60,WNW,302,4.0,7.0,97,0.00,,,-99.99,VWS V12.07,2014-02-05 20:02:00,
2014-02-05 15:15:00,36.3,35.5,29.60,West,260,1.0,8.0,97,0.00,,,-99.99,VWS V12.07,2014-02-05 20:15:00,
2014-02-05 16:02:00,37.0,35.7,29.61,WNW,303,0.0,7.0,95,0.00,,,-99.99,VWS V12.07,2014-02-05 21:02:00,
2014-02-05 16:15:00,37.2,35.9,29.61,West,259,0.0,6.0,95,0.00,,,-99.99,VWS V12.07,2014-02-05 21:15:00,
2014-02-05 17:02:00,37.6,35.8,29.64,West,264,1.0,6.0,93,0.00,,,-99.99,VWS V12.07,2014-02-05 22:02:00,
2014-02-05 17:15:00,37.5,35.4,29.64,West,264,0.0,0.0,92,0.00,,,-99.99,VWS V12.07,2014-02-05 22:15:00,
2014-02-05 18:02:00,36.5,34.1,29.67,WNW,298,2.0,5.0,91,0.00,,,-99.99,VWS V12.07,2014-02-05 23:02:00,
2014-02-05 18:15:00,36.6,34.5,29.69,WNW,296,3.0,7.0,92,0.00,,,-99.99,VWS V12.07,2014-02-05 23:15:00,
2014-02-05 19:03:00,39.1,33.8,29.72,NNW,338,4.0,11.0,81,0.00,,,-99.99,VWS V12.07,2014-02-06 00:03:00,
2014-02-05 23:32:00,34.0,22.4,29.94,NW,319,12.0,31.0,62,0.00,,,-99.99,VWS V12.07,2014-02-06 04:32:00,
2014-02-05 23:45:00,33.8,21.8,29.95,NNW,333,16.0,22.0,61,0.00,,,-99.99,VWS V12.07,2014-02-06 04:45:00,